sensor_id;sensor_type;location;lat;lon;timestamp;temperature;humidity
21582;DHT22;10952;50.836;4.348;2023-06-22T00:01:22;23.50;99.90
21582;DHT22;10952;50.836;4.348;2023-06-22T00:03:51;23.40;99.90
21582;DHT22;10952;50.836;4.348;2023-06-22T00:06:20;23.40;99.90
21582;DHT22;10952;50.836;4.348;2023-06-22T00:08:49;23.60;99.90
21582;DHT22;10952;50.836;4.348;2023-06-22T00:11:17;23.40;99.90
21582;DHT22;10952;50.836;4.348;2023-06-22T00:13:47;23.40;99.90
21582;DHT22;10952;50.836;4.348;2023-06-22T00:16:17;23.50;99.90
21582;DHT22;10952;50.836;4.348;2023-06-22T00:18:44;23.50;99.90
21582;DHT22;10952;50.836;4.348;2023-06-22T00:21:13;23.50;99.90
21582;DHT22;10952;50.836;4.348;2023-06-22T00:23:44;23.60;99.90
21582;DHT22;10952;50.836;4.348;2023-06-22T00:26:21;23.60;99.90
21582;DHT22;10952;50.836;4.348;2023-06-22T00:29:10;23.50;99.90
21582;DHT22;10952;50.836;4.348;2023-06-22T00:31:42;23.40;99.90
21582;DHT22;10952;50.836;4.348;2023-06-22T00:34:08;23.40;99.90
21582;DHT22;10952;50.836;4.348;2023-06-22T00:36:36;23.40;99.90
21582;DHT22;10952;50.836;4.348;2023-06-22T00:39:05;23.40;99.90
21582;DHT22;10952;50.836;4.348;2023-06-22T00:41:35;23.40;99.90
21582;DHT22;10952;50.836;4.348;2023-06-22T00:44:04;23.40;99.90
21582;DHT22;10952;50.836;4.348;2023-06-22T00:46:34;23.50;99.90
21582;DHT22;10952;50.836;4.348;2023-06-22T00:49:03;23.50;99.90
21582;DHT22;10952;50.836;4.348;2023-06-22T00:51:34;23.50;99.90
21582;DHT22;10952;50.836;4.348;2023-06-22T00:54:06;23.50;99.90
21582;DHT22;10952;50.836;4.348;2023-06-22T00:56:35;23.50;99.90
21582;DHT22;10952;50.836;4.348;2023-06-22T00:59:06;23.50;99.90
21582;DHT22;10952;50.836;4.348;2023-06-22T01:01:35;23.50;99.90
21582;DHT22;10952;50.836;4.348;2023-06-22T01:04:09;23.30;99.90
21582;DHT22;10952;50.836;4.348;2023-06-22T01:06:45;23.20;99.90
21582;DHT22;10952;50.836;4.348;2023-06-22T01:09:30;23.10;99.90
21582;DHT22;10952;50.836;4.348;2023-06-22T01:12:04;23.10;99.90
21582;DHT22;10952;50.836;4.348;2023-06-22T01:17:45;23.10;99.90
21582;DHT22;10952;50.836;4.348;2023-06-22T01:20:15;23.10;99.90
21582;DHT22;10952;50.836;4.348;2023-06-22T01:23:46;23.10;99.90
21582;DHT22;10952;50.836;4.348;2023-06-22T01:28:44;22.90;99.90
21582;DHT22;10952;50.836;4.348;2023-06-22T01:31:25;22.90;99.90
21582;DHT22;10952;50.836;4.348;2023-06-22T01:33:55;22.90;99.90
21582;DHT22;10952;50.836;4.348;2023-06-22T01:36:24;23.00;99.90
21582;DHT22;10952;50.836;4.348;2023-06-22T01:38:55;22.90;99.90
21582;DHT22;10952;50.836;4.348;2023-06-22T01:41:25;22.90;99.90
21582;DHT22;10952;50.836;4.348;2023-06-22T01:43:51;22.80;99.90
21582;DHT22;10952;50.836;4.348;2023-06-22T01:46:21;22.80;99.90
21582;DHT22;10952;50.836;4.348;2023-06-22T01:48:50;22.80;99.90
21582;DHT22;10952;50.836;4.348;2023-06-22T01:51:19;22.80;99.90
21582;DHT22;10952;50.836;4.348;2023-06-22T01:53:46;22.80;99.90
21582;DHT22;10952;50.836;4.348;2023-06-22T01:56:17;22.80;99.90
21582;DHT22;10952;50.836;4.348;2023-06-22T01:59:16;22.70;99.90
21582;DHT22;10952;50.836;4.348;2023-06-22T02:01:57;22.70;99.90
21582;DHT22;10952;50.836;4.348;2023-06-22T02:04:36;22.70;99.90
21582;DHT22;10952;50.836;4.348;2023-06-22T02:07:13;22.70;99.90
21582;DHT22;10952;50.836;4.348;2023-06-22T02:09:44;22.80;99.90
21582;DHT22;10952;50.836;4.348;2023-06-22T02:15:15;22.60;99.90
21582;DHT22;10952;50.836;4.348;2023-06-22T02:17:47;22.60;99.90
21582;DHT22;10952;50.836;4.348;2023-06-22T02:20:40;22.50;99.90
21582;DHT22;10952;50.836;4.348;2023-06-22T02:23:09;22.40;99.90
21582;DHT22;10952;50.836;4.348;2023-06-22T02:25:38;22.40;99.90
21582;DHT22;10952;50.836;4.348;2023-06-22T02:28:09;22.40;99.90
21582;DHT22;10952;50.836;4.348;2023-06-22T02:30:38;22.30;99.90
21582;DHT22;10952;50.836;4.348;2023-06-22T02:33:17;22.40;99.90
21582;DHT22;10952;50.836;4.348;2023-06-22T02:35:44;22.40;99.90
21582;DHT22;10952;50.836;4.348;2023-06-22T02:38:16;22.40;99.90
21582;DHT22;10952;50.836;4.348;2023-06-22T02:40:46;22.40;99.90
21582;DHT22;10952;50.836;4.348;2023-06-22T02:43:15;22.30;99.90
21582;DHT22;10952;50.836;4.348;2023-06-22T02:45:45;22.20;99.90
21582;DHT22;10952;50.836;4.348;2023-06-22T02:48:24;22.20;99.90
21582;DHT22;10952;50.836;4.348;2023-06-22T02:50:53;22.20;99.90
21582;DHT22;10952;50.836;4.348;2023-06-22T02:53:22;22.10;99.90
21582;DHT22;10952;50.836;4.348;2023-06-22T02:55:50;22.10;99.90
21582;DHT22;10952;50.836;4.348;2023-06-22T02:58:17;22.20;99.90
21582;DHT22;10952;50.836;4.348;2023-06-22T03:00:46;22.20;99.90
21582;DHT22;10952;50.836;4.348;2023-06-22T03:03:14;22.20;99.90
21582;DHT22;10952;50.836;4.348;2023-06-22T03:05:43;22.20;99.90
21582;DHT22;10952;50.836;4.348;2023-06-22T03:08:11;22.10;99.90
21582;DHT22;10952;50.836;4.348;2023-06-22T03:10:39;22.10;99.90
21582;DHT22;10952;50.836;4.348;2023-06-22T03:13:07;22.00;99.90
21582;DHT22;10952;50.836;4.348;2023-06-22T03:15:36;21.90;99.90
21582;DHT22;10952;50.836;4.348;2023-06-22T03:18:05;22.00;99.90
21582;DHT22;10952;50.836;4.348;2023-06-22T03:20:33;22.10;99.90
21582;DHT22;10952;50.836;4.348;2023-06-22T03:23:00;22.00;99.90
21582;DHT22;10952;50.836;4.348;2023-06-22T03:25:27;22.00;99.90
21582;DHT22;10952;50.836;4.348;2023-06-22T03:27:53;22.00;99.90
21582;DHT22;10952;50.836;4.348;2023-06-22T03:30:23;22.00;99.90
21582;DHT22;10952;50.836;4.348;2023-06-22T03:32:51;22.10;99.90
21582;DHT22;10952;50.836;4.348;2023-06-22T03:35:24;22.10;99.90
21582;DHT22;10952;50.836;4.348;2023-06-22T03:37:51;22.20;99.90
21582;DHT22;10952;50.836;4.348;2023-06-22T03:40:17;22.20;99.90
21582;DHT22;10952;50.836;4.348;2023-06-22T03:42:46;22.20;99.90
21582;DHT22;10952;50.836;4.348;2023-06-22T03:45:14;22.20;99.90
21582;DHT22;10952;50.836;4.348;2023-06-22T03:47:57;22.10;99.90
21582;DHT22;10952;50.836;4.348;2023-06-22T03:50:24;22.20;99.90
21582;DHT22;10952;50.836;4.348;2023-06-22T03:52:51;22.20;99.90
21582;DHT22;10952;50.836;4.348;2023-06-22T03:55:22;22.00;99.90
21582;DHT22;10952;50.836;4.348;2023-06-22T03:57:53;22.00;99.90
21582;DHT22;10952;50.836;4.348;2023-06-22T04:00:25;21.90;99.90
21582;DHT22;10952;50.836;4.348;2023-06-22T04:02:53;22.00;99.90
21582;DHT22;10952;50.836;4.348;2023-06-22T04:05:19;22.00;99.90
21582;DHT22;10952;50.836;4.348;2023-06-22T04:07:46;22.10;99.90
21582;DHT22;10952;50.836;4.348;2023-06-22T04:10:16;22.30;99.90
21582;DHT22;10952;50.836;4.348;2023-06-22T04:13:10;22.30;99.90
21582;DHT22;10952;50.836;4.348;2023-06-22T04:15:37;22.20;99.90
21582;DHT22;10952;50.836;4.348;2023-06-22T04:18:06;22.20;99.90
21582;DHT22;10952;50.836;4.348;2023-06-22T04:20:38;22.30;99.90
21582;DHT22;10952;50.836;4.348;2023-06-22T04:23:05;22.30;99.90
21582;DHT22;10952;50.836;4.348;2023-06-22T04:25:37;22.40;99.90
21582;DHT22;10952;50.836;4.348;2023-06-22T04:28:04;22.40;99.90
21582;DHT22;10952;50.836;4.348;2023-06-22T04:30:33;22.40;99.90
21582;DHT22;10952;50.836;4.348;2023-06-22T04:32:59;22.40;99.90
21582;DHT22;10952;50.836;4.348;2023-06-22T04:35:25;22.40;99.90
21582;DHT22;10952;50.836;4.348;2023-06-22T04:37:58;22.30;99.90
21582;DHT22;10952;50.836;4.348;2023-06-22T04:43:59;22.50;99.90
21582;DHT22;10952;50.836;4.348;2023-06-22T04:46:25;22.40;99.90
21582;DHT22;10952;50.836;4.348;2023-06-22T04:48:51;22.50;99.90
21582;DHT22;10952;50.836;4.348;2023-06-22T04:51:19;22.50;99.90
21582;DHT22;10952;50.836;4.348;2023-06-22T04:53:47;22.30;99.90
21582;DHT22;10952;50.836;4.348;2023-06-22T04:56:19;22.40;99.90
21582;DHT22;10952;50.836;4.348;2023-06-22T04:58:53;22.30;99.90
21582;DHT22;10952;50.836;4.348;2023-06-22T05:01:24;22.30;99.90
21582;DHT22;10952;50.836;4.348;2023-06-22T05:03:53;22.40;99.90
21582;DHT22;10952;50.836;4.348;2023-06-22T05:06:24;22.50;99.90
21582;DHT22;10952;50.836;4.348;2023-06-22T05:08:58;22.40;99.90
21582;DHT22;10952;50.836;4.348;2023-06-22T05:11:28;22.40;99.90
21582;DHT22;10952;50.836;4.348;2023-06-22T05:13:54;22.40;99.90
21582;DHT22;10952;50.836;4.348;2023-06-22T05:16:22;22.30;99.90
21582;DHT22;10952;50.836;4.348;2023-06-22T05:19:00;22.30;99.90
21582;DHT22;10952;50.836;4.348;2023-06-22T05:21:32;22.10;99.90
21582;DHT22;10952;50.836;4.348;2023-06-22T05:24:00;22.00;99.90
21582;DHT22;10952;50.836;4.348;2023-06-22T05:26:33;21.90;99.90
21582;DHT22;10952;50.836;4.348;2023-06-22T05:29:02;21.80;99.90
21582;DHT22;10952;50.836;4.348;2023-06-22T05:31:41;21.70;99.90
21582;DHT22;10952;50.836;4.348;2023-06-22T05:34:08;21.70;99.90
21582;DHT22;10952;50.836;4.348;2023-06-22T05:36:35;21.70;99.90
21582;DHT22;10952;50.836;4.348;2023-06-22T05:39:11;21.60;99.90
21582;DHT22;10952;50.836;4.348;2023-06-22T05:41:38;21.70;99.90
21582;DHT22;10952;50.836;4.348;2023-06-22T05:44:03;21.60;99.90
21582;DHT22;10952;50.836;4.348;2023-06-22T05:46:29;21.60;99.90
21582;DHT22;10952;50.836;4.348;2023-06-22T05:48:55;21.60;99.90
21582;DHT22;10952;50.836;4.348;2023-06-22T05:51:23;21.60;99.90
21582;DHT22;10952;50.836;4.348;2023-06-22T05:57:04;21.50;99.90
21582;DHT22;10952;50.836;4.348;2023-06-22T05:59:32;21.70;99.90
21582;DHT22;10952;50.836;4.348;2023-06-22T06:01:58;21.50;99.90
21582;DHT22;10952;50.836;4.348;2023-06-22T06:04:30;21.60;99.90
21582;DHT22;10952;50.836;4.348;2023-06-22T06:06:56;21.60;99.90
21582;DHT22;10952;50.836;4.348;2023-06-22T06:09:34;21.60;99.90
21582;DHT22;10952;50.836;4.348;2023-06-22T06:12:03;21.60;99.90
21582;DHT22;10952;50.836;4.348;2023-06-22T06:14:30;21.70;99.90
21582;DHT22;10952;50.836;4.348;2023-06-22T06:16:56;21.70;99.90
21582;DHT22;10952;50.836;4.348;2023-06-22T06:19:23;21.80;99.90
21582;DHT22;10952;50.836;4.348;2023-06-22T06:25:16;22.00;99.90
21582;DHT22;10952;50.836;4.348;2023-06-22T06:27:57;22.10;99.90
21582;DHT22;10952;50.836;4.348;2023-06-22T06:30:26;22.20;99.90
21582;DHT22;10952;50.836;4.348;2023-06-22T06:32:55;22.30;99.90
21582;DHT22;10952;50.836;4.348;2023-06-22T06:35:22;22.40;99.90
21582;DHT22;10952;50.836;4.348;2023-06-22T06:37:53;22.30;99.90
21582;DHT22;10952;50.836;4.348;2023-06-22T06:40:22;22.50;99.90
21582;DHT22;10952;50.836;4.348;2023-06-22T06:42:48;22.60;99.90
21582;DHT22;10952;50.836;4.348;2023-06-22T06:45:26;22.60;99.90
21582;DHT22;10952;50.836;4.348;2023-06-22T06:48:00;22.70;99.90
21582;DHT22;10952;50.836;4.348;2023-06-22T06:50:28;22.70;99.90
21582;DHT22;10952;50.836;4.348;2023-06-22T06:52:56;22.60;99.90
21582;DHT22;10952;50.836;4.348;2023-06-22T06:55:27;22.60;99.90
21582;DHT22;10952;50.836;4.348;2023-06-22T06:57:57;22.50;99.90
21582;DHT22;10952;50.836;4.348;2023-06-22T07:00:24;22.90;99.90
21582;DHT22;10952;50.836;4.348;2023-06-22T07:02:54;23.00;99.90
21582;DHT22;10952;50.836;4.348;2023-06-22T07:05:24;23.00;99.90
21582;DHT22;10952;50.836;4.348;2023-06-22T07:07:52;23.10;99.90
21582;DHT22;10952;50.836;4.348;2023-06-22T07:10:21;23.20;99.90
21582;DHT22;10952;50.836;4.348;2023-06-22T07:12:50;23.10;99.90
21582;DHT22;10952;50.836;4.348;2023-06-22T07:15:19;23.10;99.90
21582;DHT22;10952;50.836;4.348;2023-06-22T07:17:47;23.10;99.90
21582;DHT22;10952;50.836;4.348;2023-06-22T07:20:12;23.10;99.90
21582;DHT22;10952;50.836;4.348;2023-06-22T07:22:39;23.20;99.90
21582;DHT22;10952;50.836;4.348;2023-06-22T07:25:05;23.20;99.90
21582;DHT22;10952;50.836;4.348;2023-06-22T07:27:56;23.40;99.90
21582;DHT22;10952;50.836;4.348;2023-06-22T07:30:26;23.40;99.90
21582;DHT22;10952;50.836;4.348;2023-06-22T07:32:56;23.40;99.90
21582;DHT22;10952;50.836;4.348;2023-06-22T07:35:25;23.60;99.90
21582;DHT22;10952;50.836;4.348;2023-06-22T07:37:52;23.60;99.90
21582;DHT22;10952;50.836;4.348;2023-06-22T07:40:17;23.60;99.90
21582;DHT22;10952;50.836;4.348;2023-06-22T07:42:46;23.60;99.90
21582;DHT22;10952;50.836;4.348;2023-06-22T07:45:14;23.70;99.90
21582;DHT22;10952;50.836;4.348;2023-06-22T07:47:42;23.70;99.90
21582;DHT22;10952;50.836;4.348;2023-06-22T07:50:14;23.80;99.90
21582;DHT22;10952;50.836;4.348;2023-06-22T07:52:43;24.00;99.90
21582;DHT22;10952;50.836;4.348;2023-06-22T07:55:10;24.20;99.90
21582;DHT22;10952;50.836;4.348;2023-06-22T07:57:38;24.00;99.90
21582;DHT22;10952;50.836;4.348;2023-06-22T08:00:05;24.20;99.90
21582;DHT22;10952;50.836;4.348;2023-06-22T08:03:14;24.20;99.90
21582;DHT22;10952;50.836;4.348;2023-06-22T08:05:41;24.20;99.90
21582;DHT22;10952;50.836;4.348;2023-06-22T08:08:14;24.10;99.90
21582;DHT22;10952;50.836;4.348;2023-06-22T08:10:43;24.20;99.90
21582;DHT22;10952;50.836;4.348;2023-06-22T08:13:11;24.00;99.90
21582;DHT22;10952;50.836;4.348;2023-06-22T08:15:37;23.80;99.90
21582;DHT22;10952;50.836;4.348;2023-06-22T08:18:04;23.80;99.90
21582;DHT22;10952;50.836;4.348;2023-06-22T08:20:29;23.70;99.90
21582;DHT22;10952;50.836;4.348;2023-06-22T08:23:03;23.70;99.90
21582;DHT22;10952;50.836;4.348;2023-06-22T08:25:35;23.60;99.90
21582;DHT22;10952;50.836;4.348;2023-06-22T08:28:04;23.80;99.90
21582;DHT22;10952;50.836;4.348;2023-06-22T08:30:30;23.90;99.90
21582;DHT22;10952;50.836;4.348;2023-06-22T08:33:18;23.60;99.90
21582;DHT22;10952;50.836;4.348;2023-06-22T08:35:51;23.50;99.90
21582;DHT22;10952;50.836;4.348;2023-06-22T08:38:23;23.40;99.90
21582;DHT22;10952;50.836;4.348;2023-06-22T08:40:50;23.40;99.90
21582;DHT22;10952;50.836;4.348;2023-06-22T08:43:15;23.50;99.90
21582;DHT22;10952;50.836;4.348;2023-06-22T08:45:44;23.50;99.90
21582;DHT22;10952;50.836;4.348;2023-06-22T08:48:12;23.50;99.90
21582;DHT22;10952;50.836;4.348;2023-06-22T08:50:41;23.50;99.90
21582;DHT22;10952;50.836;4.348;2023-06-22T08:53:09;23.60;99.90
21582;DHT22;10952;50.836;4.348;2023-06-22T08:55:38;23.50;99.90
21582;DHT22;10952;50.836;4.348;2023-06-22T08:58:08;23.50;99.90
21582;DHT22;10952;50.836;4.348;2023-06-22T09:00:43;23.50;99.90
21582;DHT22;10952;50.836;4.348;2023-06-22T09:03:10;23.50;99.90
21582;DHT22;10952;50.836;4.348;2023-06-22T09:05:37;23.40;99.90
21582;DHT22;10952;50.836;4.348;2023-06-22T09:08:11;23.40;99.90
21582;DHT22;10952;50.836;4.348;2023-06-22T09:10:39;23.40;99.90
21582;DHT22;10952;50.836;4.348;2023-06-22T09:13:08;23.30;99.90
21582;DHT22;10952;50.836;4.348;2023-06-22T09:15:40;23.20;99.90
21582;DHT22;10952;50.836;4.348;2023-06-22T09:18:10;23.20;99.90
21582;DHT22;10952;50.836;4.348;2023-06-22T09:20:41;23.20;99.90
21582;DHT22;10952;50.836;4.348;2023-06-22T09:23:10;23.20;99.90
21582;DHT22;10952;50.836;4.348;2023-06-22T09:25:44;23.40;99.90
21582;DHT22;10952;50.836;4.348;2023-06-22T09:28:23;23.30;99.90
21582;DHT22;10952;50.836;4.348;2023-06-22T09:30:51;23.30;99.90
21582;DHT22;10952;50.836;4.348;2023-06-22T09:33:19;23.30;99.90
21582;DHT22;10952;50.836;4.348;2023-06-22T09:35:46;23.30;99.90
21582;DHT22;10952;50.836;4.348;2023-06-22T09:38:29;23.20;99.90
21582;DHT22;10952;50.836;4.348;2023-06-22T09:40:57;23.10;99.90
21582;DHT22;10952;50.836;4.348;2023-06-22T09:43:25;23.00;99.90
21582;DHT22;10952;50.836;4.348;2023-06-22T09:46:17;22.80;99.90
21582;DHT22;10952;50.836;4.348;2023-06-22T09:49:01;22.40;99.90
21582;DHT22;10952;50.836;4.348;2023-06-22T09:51:29;22.00;99.90
21582;DHT22;10952;50.836;4.348;2023-06-22T09:54:02;21.70;99.90
21582;DHT22;10952;50.836;4.348;2023-06-22T09:56:32;21.50;99.90
21582;DHT22;10952;50.836;4.348;2023-06-22T09:59:01;21.10;99.90
21582;DHT22;10952;50.836;4.348;2023-06-22T10:01:33;20.70;99.90
21582;DHT22;10952;50.836;4.348;2023-06-22T10:04:05;20.70;99.90
21582;DHT22;10952;50.836;4.348;2023-06-22T10:06:31;20.60;99.90
21582;DHT22;10952;50.836;4.348;2023-06-22T10:09:04;20.50;99.90
21582;DHT22;10952;50.836;4.348;2023-06-22T10:11:33;20.50;99.90
21582;DHT22;10952;50.836;4.348;2023-06-22T10:14:02;20.30;99.90
21582;DHT22;10952;50.836;4.348;2023-06-22T10:16:36;20.20;99.90
21582;DHT22;10952;50.836;4.348;2023-06-22T10:19:12;20.10;99.90
21582;DHT22;10952;50.836;4.348;2023-06-22T10:21:44;20.00;99.90
21582;DHT22;10952;50.836;4.348;2023-06-22T10:24:15;20.00;99.90
21582;DHT22;10952;50.836;4.348;2023-06-22T10:26:48;20.00;99.90
21582;DHT22;10952;50.836;4.348;2023-06-22T10:29:16;20.00;99.90
21582;DHT22;10952;50.836;4.348;2023-06-22T10:31:42;20.00;99.90
21582;DHT22;10952;50.836;4.348;2023-06-22T10:34:08;20.10;99.90
21582;DHT22;10952;50.836;4.348;2023-06-22T10:36:38;19.90;99.90
21582;DHT22;10952;50.836;4.348;2023-06-22T10:39:04;19.90;99.90
21582;DHT22;10952;50.836;4.348;2023-06-22T10:41:29;20.10;99.90
21582;DHT22;10952;50.836;4.348;2023-06-22T10:43:57;19.80;99.90
21582;DHT22;10952;50.836;4.348;2023-06-22T10:46:25;19.80;99.90
21582;DHT22;10952;50.836;4.348;2023-06-22T10:48:55;19.90;99.90
21582;DHT22;10952;50.836;4.348;2023-06-22T10:51:30;20.00;99.90
21582;DHT22;10952;50.836;4.348;2023-06-22T11:00:58;20.40;99.90
21582;DHT22;10952;50.836;4.348;2023-06-22T11:06:48;20.50;99.90
21582;DHT22;10952;50.836;4.348;2023-06-22T11:16:06;20.50;99.90
21582;DHT22;10952;50.836;4.348;2023-06-22T11:22:38;20.90;99.90
21582;DHT22;10952;50.836;4.348;2023-06-22T11:28:53;21.00;99.90
21582;DHT22;10952;50.836;4.348;2023-06-22T11:31:24;21.00;99.90
21582;DHT22;10952;50.836;4.348;2023-06-22T11:34:03;21.10;99.90
21582;DHT22;10952;50.836;4.348;2023-06-22T11:36:43;21.20;99.90
21582;DHT22;10952;50.836;4.348;2023-06-22T11:39:12;21.10;99.90
21582;DHT22;10952;50.836;4.348;2023-06-22T11:41:44;20.90;99.90
21582;DHT22;10952;50.836;4.348;2023-06-22T11:44:13;21.00;99.90
21582;DHT22;10952;50.836;4.348;2023-06-22T11:46:42;21.10;99.90
21582;DHT22;10952;50.836;4.348;2023-06-22T11:49:18;21.10;99.90
21582;DHT22;10952;50.836;4.348;2023-06-22T11:51:46;21.00;99.90
21582;DHT22;10952;50.836;4.348;2023-06-22T11:54:15;20.90;99.90
21582;DHT22;10952;50.836;4.348;2023-06-22T11:56:41;20.90;99.90
21582;DHT22;10952;50.836;4.348;2023-06-22T11:59:10;20.80;99.90
21582;DHT22;10952;50.836;4.348;2023-06-22T12:01:45;20.60;99.90
21582;DHT22;10952;50.836;4.348;2023-06-22T12:04:16;20.40;99.90
21582;DHT22;10952;50.836;4.348;2023-06-22T12:07:05;20.50;99.90
21582;DHT22;10952;50.836;4.348;2023-06-22T12:12:58;20.70;99.90
21582;DHT22;10952;50.836;4.348;2023-06-22T12:15:54;20.80;99.90
21582;DHT22;10952;50.836;4.348;2023-06-22T12:18:27;20.70;99.90
21582;DHT22;10952;50.836;4.348;2023-06-22T12:21:12;20.60;99.90
21582;DHT22;10952;50.836;4.348;2023-06-22T12:23:37;20.60;99.90
21582;DHT22;10952;50.836;4.348;2023-06-22T12:26:04;20.50;99.90
21582;DHT22;10952;50.836;4.348;2023-06-22T12:29:06;20.50;99.90
21582;DHT22;10952;50.836;4.348;2023-06-22T12:32:01;20.50;99.90
21582;DHT22;10952;50.836;4.348;2023-06-22T12:34:38;20.60;99.90
21582;DHT22;10952;50.836;4.348;2023-06-22T12:37:07;20.60;99.90
21582;DHT22;10952;50.836;4.348;2023-06-22T12:39:41;20.40;99.90
21582;DHT22;10952;50.836;4.348;2023-06-22T12:42:15;20.40;99.90
21582;DHT22;10952;50.836;4.348;2023-06-22T12:44:41;20.40;99.90
21582;DHT22;10952;50.836;4.348;2023-06-22T12:47:17;20.30;99.90
21582;DHT22;10952;50.836;4.348;2023-06-22T12:49:43;20.40;99.90
21582;DHT22;10952;50.836;4.348;2023-06-22T12:52:09;20.40;99.90
21582;DHT22;10952;50.836;4.348;2023-06-22T12:54:35;20.40;99.90
21582;DHT22;10952;50.836;4.348;2023-06-22T12:57:01;20.30;99.90
21582;DHT22;10952;50.836;4.348;2023-06-22T12:59:28;20.40;99.90
21582;DHT22;10952;50.836;4.348;2023-06-22T13:05:17;20.40;99.90
21582;DHT22;10952;50.836;4.348;2023-06-22T13:08:05;20.30;99.90
21582;DHT22;10952;50.836;4.348;2023-06-22T13:10:32;20.20;99.90
21582;DHT22;10952;50.836;4.348;2023-06-22T13:13:00;20.10;99.90
21582;DHT22;10952;50.836;4.348;2023-06-22T13:15:31;20.10;99.90
21582;DHT22;10952;50.836;4.348;2023-06-22T13:18:03;20.20;99.90
21582;DHT22;10952;50.836;4.348;2023-06-22T13:20:57;20.20;99.90
21582;DHT22;10952;50.836;4.348;2023-06-22T13:23:23;20.20;99.90
21582;DHT22;10952;50.836;4.348;2023-06-22T13:25:54;20.20;99.90
21582;DHT22;10952;50.836;4.348;2023-06-22T13:28:23;20.20;99.90
21582;DHT22;10952;50.836;4.348;2023-06-22T13:30:52;20.20;99.90
21582;DHT22;10952;50.836;4.348;2023-06-22T13:33:18;20.20;99.90
21582;DHT22;10952;50.836;4.348;2023-06-22T13:35:45;20.10;99.90
21582;DHT22;10952;50.836;4.348;2023-06-22T13:38:11;20.10;99.90
21582;DHT22;10952;50.836;4.348;2023-06-22T13:40:39;20.00;99.90
21582;DHT22;10952;50.836;4.348;2023-06-22T13:43:07;19.90;99.90
21582;DHT22;10952;50.836;4.348;2023-06-22T13:45:33;19.80;99.90
21582;DHT22;10952;50.836;4.348;2023-06-22T13:48:15;19.80;99.90
21582;DHT22;10952;50.836;4.348;2023-06-22T13:50:48;19.80;99.90
21582;DHT22;10952;50.836;4.348;2023-06-22T13:53:15;19.90;99.90
21582;DHT22;10952;50.836;4.348;2023-06-22T13:55:52;19.70;99.90
21582;DHT22;10952;50.836;4.348;2023-06-22T13:58:18;19.60;99.90
21582;DHT22;10952;50.836;4.348;2023-06-22T14:00:45;19.60;99.90
21582;DHT22;10952;50.836;4.348;2023-06-22T14:03:13;19.70;99.90
21582;DHT22;10952;50.836;4.348;2023-06-22T14:05:46;19.80;99.90
21582;DHT22;10952;50.836;4.348;2023-06-22T14:08:15;19.80;99.90
21582;DHT22;10952;50.836;4.348;2023-06-22T14:10:41;19.80;99.90
21582;DHT22;10952;50.836;4.348;2023-06-22T14:13:10;19.80;99.90
21582;DHT22;10952;50.836;4.348;2023-06-22T14:15:35;19.80;99.90
21582;DHT22;10952;50.836;4.348;2023-06-22T14:18:05;19.90;99.90
21582;DHT22;10952;50.836;4.348;2023-06-22T14:20:33;19.90;99.90
21582;DHT22;10952;50.836;4.348;2023-06-22T14:22:58;19.90;99.90
21582;DHT22;10952;50.836;4.348;2023-06-22T14:25:25;19.80;99.90
21582;DHT22;10952;50.836;4.348;2023-06-22T14:27:52;19.90;99.90
21582;DHT22;10952;50.836;4.348;2023-06-22T14:30:17;19.90;99.90
21582;DHT22;10952;50.836;4.348;2023-06-22T14:32:43;19.90;99.90
21582;DHT22;10952;50.836;4.348;2023-06-22T14:35:13;19.80;99.90
21582;DHT22;10952;50.836;4.348;2023-06-22T14:37:48;19.80;99.90
21582;DHT22;10952;50.836;4.348;2023-06-22T14:40:18;19.70;99.90
21582;DHT22;10952;50.836;4.348;2023-06-22T14:42:47;19.60;99.90
21582;DHT22;10952;50.836;4.348;2023-06-22T14:45:26;19.50;99.90
21582;DHT22;10952;50.836;4.348;2023-06-22T14:48:02;19.50;99.90
21582;DHT22;10952;50.836;4.348;2023-06-22T14:54:02;19.60;99.90
21582;DHT22;10952;50.836;4.348;2023-06-22T14:57:00;19.80;99.90
21582;DHT22;10952;50.836;4.348;2023-06-22T15:02:43;19.80;99.90
21582;DHT22;10952;50.836;4.348;2023-06-22T15:05:13;19.90;99.90
21582;DHT22;10952;50.836;4.348;2023-06-22T15:07:48;20.00;99.90
21582;DHT22;10952;50.836;4.348;2023-06-22T15:10:34;20.00;99.90
21582;DHT22;10952;50.836;4.348;2023-06-22T15:13:41;19.90;99.90
21582;DHT22;10952;50.836;4.348;2023-06-22T15:20:09;20.00;99.90
21582;DHT22;10952;50.836;4.348;2023-06-22T15:22:37;19.90;99.90
21582;DHT22;10952;50.836;4.348;2023-06-22T15:28:35;20.10;99.90
21582;DHT22;10952;50.836;4.348;2023-06-22T15:31:09;20.00;99.90
21582;DHT22;10952;50.836;4.348;2023-06-22T15:33:38;20.10;99.90
21582;DHT22;10952;50.836;4.348;2023-06-22T15:36:05;20.10;99.90
21582;DHT22;10952;50.836;4.348;2023-06-22T15:38:32;20.20;99.90
21582;DHT22;10952;50.836;4.348;2023-06-22T15:41:02;20.30;99.90
21582;DHT22;10952;50.836;4.348;2023-06-22T15:43:31;20.30;99.90
21582;DHT22;10952;50.836;4.348;2023-06-22T15:45:59;20.50;99.90
21582;DHT22;10952;50.836;4.348;2023-06-22T15:48:29;20.50;99.90
21582;DHT22;10952;50.836;4.348;2023-06-22T15:51:00;20.50;99.90
21582;DHT22;10952;50.836;4.348;2023-06-22T15:53:29;20.50;99.90
21582;DHT22;10952;50.836;4.348;2023-06-22T15:55:55;20.60;99.90
21582;DHT22;10952;50.836;4.348;2023-06-22T15:58:24;20.70;99.90
21582;DHT22;10952;50.836;4.348;2023-06-22T16:00:50;20.70;99.90
21582;DHT22;10952;50.836;4.348;2023-06-22T16:03:45;20.80;99.90
21582;DHT22;10952;50.836;4.348;2023-06-22T16:06:14;20.90;99.90
21582;DHT22;10952;50.836;4.348;2023-06-22T16:08:50;20.80;99.90
21582;DHT22;10952;50.836;4.348;2023-06-22T16:11:21;20.80;99.90
21582;DHT22;10952;50.836;4.348;2023-06-22T16:13:48;20.70;99.90
21582;DHT22;10952;50.836;4.348;2023-06-22T16:16:21;20.70;99.90
21582;DHT22;10952;50.836;4.348;2023-06-22T16:18:51;20.70;99.90
21582;DHT22;10952;50.836;4.348;2023-06-22T16:21:17;20.70;99.90
21582;DHT22;10952;50.836;4.348;2023-06-22T16:23:43;20.60;99.90
21582;DHT22;10952;50.836;4.348;2023-06-22T16:26:09;20.40;99.90
21582;DHT22;10952;50.836;4.348;2023-06-22T16:28:34;20.30;99.90
21582;DHT22;10952;50.836;4.348;2023-06-22T16:31:00;20.20;99.90
21582;DHT22;10952;50.836;4.348;2023-06-22T16:33:29;20.30;99.90
21582;DHT22;10952;50.836;4.348;2023-06-22T16:39:34;20.10;99.90
21582;DHT22;10952;50.836;4.348;2023-06-22T16:42:30;19.90;99.90
21582;DHT22;10952;50.836;4.348;2023-06-22T16:44:59;19.80;99.90
21582;DHT22;10952;50.836;4.348;2023-06-22T16:47:24;19.80;99.90
21582;DHT22;10952;50.836;4.348;2023-06-22T16:49:57;19.90;99.90
21582;DHT22;10952;50.836;4.348;2023-06-22T16:52:26;20.10;99.90
21582;DHT22;10952;50.836;4.348;2023-06-22T16:54:52;20.20;99.90
21582;DHT22;10952;50.836;4.348;2023-06-22T16:57:23;20.30;99.90
21582;DHT22;10952;50.836;4.348;2023-06-22T16:59:53;20.40;99.90
21582;DHT22;10952;50.836;4.348;2023-06-22T17:02:22;20.50;99.90